sensor_id;sensor_type;location;lat;lon;timestamp;temperature;humidity
72814;DHT22;60945;48.516;-2.768;2023-08-06T00:00:19;13.70;85.40
72814;DHT22;60945;48.516;-2.768;2023-08-06T00:02:45;13.70;85.50
72814;DHT22;60945;48.516;-2.768;2023-08-06T00:05:10;13.70;85.70
72814;DHT22;60945;48.516;-2.768;2023-08-06T00:07:36;13.70;85.50
72814;DHT22;60945;48.516;-2.768;2023-08-06T00:10:02;13.70;85.60
72814;DHT22;60945;48.516;-2.768;2023-08-06T00:12:27;13.70;85.60
72814;DHT22;60945;48.516;-2.768;2023-08-06T00:14:53;13.70;85.70
72814;DHT22;60945;48.516;-2.768;2023-08-06T00:17:19;13.70;85.60
72814;DHT22;60945;48.516;-2.768;2023-08-06T00:19:45;13.70;85.70
72814;DHT22;60945;48.516;-2.768;2023-08-06T00:22:10;13.70;85.80
72814;DHT22;60945;48.516;-2.768;2023-08-06T00:24:36;13.70;85.90
72814;DHT22;60945;48.516;-2.768;2023-08-06T00:27:02;13.60;86.10
72814;DHT22;60945;48.516;-2.768;2023-08-06T00:29:28;13.60;86.30
72814;DHT22;60945;48.516;-2.768;2023-08-06T00:31:53;13.60;86.30
72814;DHT22;60945;48.516;-2.768;2023-08-06T00:34:19;13.60;86.40
72814;DHT22;60945;48.516;-2.768;2023-08-06T00:36:45;13.50;86.50
72814;DHT22;60945;48.516;-2.768;2023-08-06T00:39:10;13.60;86.60
72814;DHT22;60945;48.516;-2.768;2023-08-06T00:41:36;13.60;86.60
72814;DHT22;60945;48.516;-2.768;2023-08-06T00:44:02;13.50;86.80
72814;DHT22;60945;48.516;-2.768;2023-08-06T00:46:28;13.50;87.00
72814;DHT22;60945;48.516;-2.768;2023-08-06T00:48:54;13.50;87.10
72814;DHT22;60945;48.516;-2.768;2023-08-06T00:51:20;13.50;87.00
72814;DHT22;60945;48.516;-2.768;2023-08-06T00:53:47;13.50;87.10
72814;DHT22;60945;48.516;-2.768;2023-08-06T00:56:13;13.50;87.20
72814;DHT22;60945;48.516;-2.768;2023-08-06T00:58:40;13.50;87.30
72814;DHT22;60945;48.516;-2.768;2023-08-06T01:01:06;13.50;87.60
72814;DHT22;60945;48.516;-2.768;2023-08-06T01:03:31;13.50;87.50
72814;DHT22;60945;48.516;-2.768;2023-08-06T01:05:57;13.50;87.60
72814;DHT22;60945;48.516;-2.768;2023-08-06T01:08:36;13.50;87.70
72814;DHT22;60945;48.516;-2.768;2023-08-06T01:11:59;13.40;87.90
72814;DHT22;60945;48.516;-2.768;2023-08-06T01:14:06;13.40;88.20
72814;DHT22;60945;48.516;-2.768;2023-08-06T01:16:33;13.40;88.50
72814;DHT22;60945;48.516;-2.768;2023-08-06T01:19:00;13.30;88.80
72814;DHT22;60945;48.516;-2.768;2023-08-06T01:21:25;13.40;88.90
72814;DHT22;60945;48.516;-2.768;2023-08-06T01:23:51;13.40;89.00
72814;DHT22;60945;48.516;-2.768;2023-08-06T01:26:29;13.40;89.10
72814;DHT22;60945;48.516;-2.768;2023-08-06T01:29:18;13.40;89.10
72814;DHT22;60945;48.516;-2.768;2023-08-06T01:31:48;13.40;89.10
72814;DHT22;60945;48.516;-2.768;2023-08-06T01:34:24;13.40;89.30
72814;DHT22;60945;48.516;-2.768;2023-08-06T01:36:53;13.40;89.10
72814;DHT22;60945;48.516;-2.768;2023-08-06T01:39:18;13.40;89.10
72814;DHT22;60945;48.516;-2.768;2023-08-06T01:41:48;13.40;89.30
72814;DHT22;60945;48.516;-2.768;2023-08-06T01:44:14;13.40;89.30
72814;DHT22;60945;48.516;-2.768;2023-08-06T01:46:40;13.40;89.50
72814;DHT22;60945;48.516;-2.768;2023-08-06T01:49:05;13.40;89.60
72814;DHT22;60945;48.516;-2.768;2023-08-06T01:51:31;13.40;89.50
72814;DHT22;60945;48.516;-2.768;2023-08-06T01:53:57;13.30;89.50
72814;DHT22;60945;48.516;-2.768;2023-08-06T01:56:22;13.30;89.90
72814;DHT22;60945;48.516;-2.768;2023-08-06T01:58:48;13.30;89.90
72814;DHT22;60945;48.516;-2.768;2023-08-06T02:01:14;13.30;90.00
72814;DHT22;60945;48.516;-2.768;2023-08-06T02:03:39;13.30;90.00
72814;DHT22;60945;48.516;-2.768;2023-08-06T02:06:05;13.30;90.40
72814;DHT22;60945;48.516;-2.768;2023-08-06T02:08:31;13.30;90.40
72814;DHT22;60945;48.516;-2.768;2023-08-06T02:10:56;13.30;90.50
72814;DHT22;60945;48.516;-2.768;2023-08-06T02:13:23;13.30;90.50
72814;DHT22;60945;48.516;-2.768;2023-08-06T02:15:49;13.30;90.60
72814;DHT22;60945;48.516;-2.768;2023-08-06T02:18:15;13.30;90.60
72814;DHT22;60945;48.516;-2.768;2023-08-06T02:20:41;13.30;90.80
72814;DHT22;60945;48.516;-2.768;2023-08-06T02:23:07;13.30;91.00
72814;DHT22;60945;48.516;-2.768;2023-08-06T02:25:33;13.30;91.10
72814;DHT22;60945;48.516;-2.768;2023-08-06T02:27:59;13.30;91.30
72814;DHT22;60945;48.516;-2.768;2023-08-06T02:30:24;13.40;91.50
72814;DHT22;60945;48.516;-2.768;2023-08-06T02:32:50;13.40;91.60
72814;DHT22;60945;48.516;-2.768;2023-08-06T02:35:16;13.40;91.70
72814;DHT22;60945;48.516;-2.768;2023-08-06T02:37:41;13.30;91.80
72814;DHT22;60945;48.516;-2.768;2023-08-06T02:40:07;13.30;91.80
72814;DHT22;60945;48.516;-2.768;2023-08-06T02:42:33;13.30;91.90
72814;DHT22;60945;48.516;-2.768;2023-08-06T02:44:59;13.30;92.00
72814;DHT22;60945;48.516;-2.768;2023-08-06T02:47:24;13.30;92.00
72814;DHT22;60945;48.516;-2.768;2023-08-06T02:49:50;13.30;92.10
72814;DHT22;60945;48.516;-2.768;2023-08-06T02:52:16;13.30;92.20
72814;DHT22;60945;48.516;-2.768;2023-08-06T02:54:42;13.30;92.10
72814;DHT22;60945;48.516;-2.768;2023-08-06T02:57:08;13.30;92.40
72814;DHT22;60945;48.516;-2.768;2023-08-06T02:59:34;13.30;92.40
72814;DHT22;60945;48.516;-2.768;2023-08-06T03:01:59;13.30;92.40
72814;DHT22;60945;48.516;-2.768;2023-08-06T03:04:25;13.30;92.50
72814;DHT22;60945;48.516;-2.768;2023-08-06T03:06:51;13.30;92.50
72814;DHT22;60945;48.516;-2.768;2023-08-06T03:09:19;13.30;92.60
72814;DHT22;60945;48.516;-2.768;2023-08-06T03:11:45;13.30;92.60
72814;DHT22;60945;48.516;-2.768;2023-08-06T03:14:11;13.20;92.60
72814;DHT22;60945;48.516;-2.768;2023-08-06T03:16:36;13.20;92.60
72814;DHT22;60945;48.516;-2.768;2023-08-06T03:19:02;13.20;92.90
72814;DHT22;60945;48.516;-2.768;2023-08-06T03:21:27;13.30;92.90
72814;DHT22;60945;48.516;-2.768;2023-08-06T03:23:53;13.30;92.90
72814;DHT22;60945;48.516;-2.768;2023-08-06T03:26:19;13.30;92.90
72814;DHT22;60945;48.516;-2.768;2023-08-06T03:28:44;13.30;93.00
72814;DHT22;60945;48.516;-2.768;2023-08-06T03:31:10;13.30;92.90
72814;DHT22;60945;48.516;-2.768;2023-08-06T03:33:36;13.30;92.80
72814;DHT22;60945;48.516;-2.768;2023-08-06T03:36:02;13.30;92.90
72814;DHT22;60945;48.516;-2.768;2023-08-06T03:38:27;13.30;93.00
72814;DHT22;60945;48.516;-2.768;2023-08-06T03:40:53;13.30;92.90
72814;DHT22;60945;48.516;-2.768;2023-08-06T03:43:19;13.30;92.90
72814;DHT22;60945;48.516;-2.768;2023-08-06T03:45:45;13.30;93.00
72814;DHT22;60945;48.516;-2.768;2023-08-06T03:48:10;13.30;93.10
72814;DHT22;60945;48.516;-2.768;2023-08-06T03:50:36;13.30;93.10
72814;DHT22;60945;48.516;-2.768;2023-08-06T03:53:02;13.30;93.10
72814;DHT22;60945;48.516;-2.768;2023-08-06T03:55:28;13.30;93.20
72814;DHT22;60945;48.516;-2.768;2023-08-06T03:57:56;13.40;93.30
72814;DHT22;60945;48.516;-2.768;2023-08-06T04:00:22;13.30;93.10
72814;DHT22;60945;48.516;-2.768;2023-08-06T04:02:48;13.30;93.40
72814;DHT22;60945;48.516;-2.768;2023-08-06T04:05:14;13.30;93.50
72814;DHT22;60945;48.516;-2.768;2023-08-06T04:07:40;13.30;93.40
72814;DHT22;60945;48.516;-2.768;2023-08-06T04:10:06;13.30;93.30
72814;DHT22;60945;48.516;-2.768;2023-08-06T04:12:31;13.30;93.40
72814;DHT22;60945;48.516;-2.768;2023-08-06T04:15:01;13.20;93.40
72814;DHT22;60945;48.516;-2.768;2023-08-06T04:17:27;13.20;93.80
72814;DHT22;60945;48.516;-2.768;2023-08-06T04:19:54;13.30;93.90
72814;DHT22;60945;48.516;-2.768;2023-08-06T04:22:21;13.20;93.80
72814;DHT22;60945;48.516;-2.768;2023-08-06T04:24:47;13.30;93.90
72814;DHT22;60945;48.516;-2.768;2023-08-06T04:27:14;13.30;93.80
72814;DHT22;60945;48.516;-2.768;2023-08-06T04:29:40;13.20;93.90
72814;DHT22;60945;48.516;-2.768;2023-08-06T04:32:08;13.20;94.20
72814;DHT22;60945;48.516;-2.768;2023-08-06T04:34:34;13.20;94.10
72814;DHT22;60945;48.516;-2.768;2023-08-06T04:37:00;13.20;94.30
72814;DHT22;60945;48.516;-2.768;2023-08-06T04:39:26;13.20;94.50
72814;DHT22;60945;48.516;-2.768;2023-08-06T04:41:52;13.20;94.60
72814;DHT22;60945;48.516;-2.768;2023-08-06T04:44:17;13.10;94.50
72814;DHT22;60945;48.516;-2.768;2023-08-06T04:46:43;13.10;94.50
72814;DHT22;60945;48.516;-2.768;2023-08-06T04:49:09;13.10;94.40
72814;DHT22;60945;48.516;-2.768;2023-08-06T04:51:34;13.10;94.60
72814;DHT22;60945;48.516;-2.768;2023-08-06T04:54:00;13.10;94.60
72814;DHT22;60945;48.516;-2.768;2023-08-06T04:56:26;13.10;94.70
72814;DHT22;60945;48.516;-2.768;2023-08-06T04:58:52;13.20;94.80
72814;DHT22;60945;48.516;-2.768;2023-08-06T05:01:18;13.20;94.70
72814;DHT22;60945;48.516;-2.768;2023-08-06T05:03:44;13.20;94.70
72814;DHT22;60945;48.516;-2.768;2023-08-06T05:06:09;13.20;94.80
72814;DHT22;60945;48.516;-2.768;2023-08-06T05:08:36;13.30;94.80
72814;DHT22;60945;48.516;-2.768;2023-08-06T05:11:01;13.40;94.30
72814;DHT22;60945;48.516;-2.768;2023-08-06T05:13:27;13.40;94.00
72814;DHT22;60945;48.516;-2.768;2023-08-06T05:15:54;13.40;93.90
72814;DHT22;60945;48.516;-2.768;2023-08-06T05:18:20;13.40;93.90
72814;DHT22;60945;48.516;-2.768;2023-08-06T05:20:45;13.40;93.90
72814;DHT22;60945;48.516;-2.768;2023-08-06T05:23:11;13.40;93.70
72814;DHT22;60945;48.516;-2.768;2023-08-06T05:25:40;13.40;93.70
72814;DHT22;60945;48.516;-2.768;2023-08-06T05:28:05;13.40;93.60
72814;DHT22;60945;48.516;-2.768;2023-08-06T05:30:31;13.50;93.50
72814;DHT22;60945;48.516;-2.768;2023-08-06T05:32:57;13.50;93.50
72814;DHT22;60945;48.516;-2.768;2023-08-06T05:35:23;13.50;93.40
72814;DHT22;60945;48.516;-2.768;2023-08-06T05:37:49;13.50;93.40
72814;DHT22;60945;48.516;-2.768;2023-08-06T05:40:15;13.60;93.30
72814;DHT22;60945;48.516;-2.768;2023-08-06T05:42:41;13.70;93.40
72814;DHT22;60945;48.516;-2.768;2023-08-06T05:45:07;13.70;93.30
72814;DHT22;60945;48.516;-2.768;2023-08-06T05:47:33;13.80;93.00
72814;DHT22;60945;48.516;-2.768;2023-08-06T05:49:59;13.80;92.90
72814;DHT22;60945;48.516;-2.768;2023-08-06T05:52:24;13.90;92.70
72814;DHT22;60945;48.516;-2.768;2023-08-06T05:54:50;13.90;92.40
72814;DHT22;60945;48.516;-2.768;2023-08-06T05:57:17;14.00;91.80
72814;DHT22;60945;48.516;-2.768;2023-08-06T05:59:43;14.00;91.50
72814;DHT22;60945;48.516;-2.768;2023-08-06T06:02:08;14.10;91.30
72814;DHT22;60945;48.516;-2.768;2023-08-06T06:04:34;14.20;90.80
72814;DHT22;60945;48.516;-2.768;2023-08-06T06:07:00;14.30;90.20
72814;DHT22;60945;48.516;-2.768;2023-08-06T06:09:26;14.30;89.70
72814;DHT22;60945;48.516;-2.768;2023-08-06T06:11:51;14.40;89.40
72814;DHT22;60945;48.516;-2.768;2023-08-06T06:14:18;14.40;89.20
72814;DHT22;60945;48.516;-2.768;2023-08-06T06:16:44;14.50;88.90
72814;DHT22;60945;48.516;-2.768;2023-08-06T06:19:11;14.50;88.70
72814;DHT22;60945;48.516;-2.768;2023-08-06T06:21:36;14.60;88.50
72814;DHT22;60945;48.516;-2.768;2023-08-06T06:24:03;14.60;88.40
72814;DHT22;60945;48.516;-2.768;2023-08-06T06:26:30;14.70;88.00
72814;DHT22;60945;48.516;-2.768;2023-08-06T06:28:55;14.90;87.70
72814;DHT22;60945;48.516;-2.768;2023-08-06T06:31:21;14.90;87.10
72814;DHT22;60945;48.516;-2.768;2023-08-06T06:33:47;15.00;86.90
72814;DHT22;60945;48.516;-2.768;2023-08-06T06:36:12;15.00;86.80
72814;DHT22;60945;48.516;-2.768;2023-08-06T06:38:38;15.10;86.60
72814;DHT22;60945;48.516;-2.768;2023-08-06T06:41:04;15.20;86.30
72814;DHT22;60945;48.516;-2.768;2023-08-06T06:43:29;15.30;85.80
72814;DHT22;60945;48.516;-2.768;2023-08-06T06:45:59;15.40;85.50
72814;DHT22;60945;48.516;-2.768;2023-08-06T06:48:31;15.50;85.00
72814;DHT22;60945;48.516;-2.768;2023-08-06T06:50:57;15.70;84.20
72814;DHT22;60945;48.516;-2.768;2023-08-06T06:53:23;15.90;83.50
72814;DHT22;60945;48.516;-2.768;2023-08-06T06:56:03;16.00;82.60
72814;DHT22;60945;48.516;-2.768;2023-08-06T06:58:29;16.20;81.80
72814;DHT22;60945;48.516;-2.768;2023-08-06T07:00:55;16.30;81.20
72814;DHT22;60945;48.516;-2.768;2023-08-06T07:03:20;16.50;79.80
72814;DHT22;60945;48.516;-2.768;2023-08-06T07:05:46;16.50;79.50
72814;DHT22;60945;48.516;-2.768;2023-08-06T07:08:12;16.40;80.20
72814;DHT22;60945;48.516;-2.768;2023-08-06T07:10:38;16.40;80.00
72814;DHT22;60945;48.516;-2.768;2023-08-06T07:13:04;16.30;80.00
72814;DHT22;60945;48.516;-2.768;2023-08-06T07:15:29;16.20;80.20
72814;DHT22;60945;48.516;-2.768;2023-08-06T07:17:55;16.30;79.70
72814;DHT22;60945;48.516;-2.768;2023-08-06T07:20:21;16.50;79.60
72814;DHT22;60945;48.516;-2.768;2023-08-06T07:22:46;16.80;78.60
72814;DHT22;60945;48.516;-2.768;2023-08-06T07:25:12;16.80;77.90
72814;DHT22;60945;48.516;-2.768;2023-08-06T07:27:38;16.70;77.70
72814;DHT22;60945;48.516;-2.768;2023-08-06T07:30:04;16.60;77.70
72814;DHT22;60945;48.516;-2.768;2023-08-06T07:32:31;16.50;77.30
72814;DHT22;60945;48.516;-2.768;2023-08-06T07:34:56;16.60;77.60
72814;DHT22;60945;48.516;-2.768;2023-08-06T07:37:26;16.70;76.90
72814;DHT22;60945;48.516;-2.768;2023-08-06T07:39:55;16.80;77.00
72814;DHT22;60945;48.516;-2.768;2023-08-06T07:42:22;17.00;76.40
72814;DHT22;60945;48.516;-2.768;2023-08-06T07:44:54;17.30;75.30
72814;DHT22;60945;48.516;-2.768;2023-08-06T07:47:21;18.00;73.10
72814;DHT22;60945;48.516;-2.768;2023-08-06T07:49:46;18.50;71.30
72814;DHT22;60945;48.516;-2.768;2023-08-06T07:52:12;18.40;69.90
72814;DHT22;60945;48.516;-2.768;2023-08-06T07:54:38;18.50;69.30
72814;DHT22;60945;48.516;-2.768;2023-08-06T07:57:04;18.80;68.90
72814;DHT22;60945;48.516;-2.768;2023-08-06T07:59:30;19.20;67.40
72814;DHT22;60945;48.516;-2.768;2023-08-06T08:01:56;19.60;66.10
72814;DHT22;60945;48.516;-2.768;2023-08-06T08:04:21;19.80;64.00
72814;DHT22;60945;48.516;-2.768;2023-08-06T08:06:47;19.90;64.20
72814;DHT22;60945;48.516;-2.768;2023-08-06T08:09:13;20.00;63.90
72814;DHT22;60945;48.516;-2.768;2023-08-06T08:11:40;19.80;64.10
72814;DHT22;60945;48.516;-2.768;2023-08-06T08:14:06;20.20;62.70
72814;DHT22;60945;48.516;-2.768;2023-08-06T08:16:31;20.40;62.50
72814;DHT22;60945;48.516;-2.768;2023-08-06T08:18:57;20.50;61.90
72814;DHT22;60945;48.516;-2.768;2023-08-06T08:21:23;20.10;62.30
72814;DHT22;60945;48.516;-2.768;2023-08-06T08:23:50;19.80;62.70
72814;DHT22;60945;48.516;-2.768;2023-08-06T08:26:15;19.70;63.70
72814;DHT22;60945;48.516;-2.768;2023-08-06T08:28:41;19.70;64.10
72814;DHT22;60945;48.516;-2.768;2023-08-06T08:31:10;20.10;63.30
72814;DHT22;60945;48.516;-2.768;2023-08-06T08:33:37;20.30;61.70
72814;DHT22;60945;48.516;-2.768;2023-08-06T08:36:03;20.40;61.80
72814;DHT22;60945;48.516;-2.768;2023-08-06T08:38:29;20.00;62.20
72814;DHT22;60945;48.516;-2.768;2023-08-06T08:40:55;19.40;63.80
72814;DHT22;60945;48.516;-2.768;2023-08-06T08:43:23;19.30;65.00
72814;DHT22;60945;48.516;-2.768;2023-08-06T08:45:51;19.40;64.80
72814;DHT22;60945;48.516;-2.768;2023-08-06T08:48:18;19.20;64.30
72814;DHT22;60945;48.516;-2.768;2023-08-06T08:50:45;18.80;65.20
72814;DHT22;60945;48.516;-2.768;2023-08-06T08:53:13;19.00;64.60
72814;DHT22;60945;48.516;-2.768;2023-08-06T08:55:39;19.80;61.90
72814;DHT22;60945;48.516;-2.768;2023-08-06T08:58:05;19.80;61.40
72814;DHT22;60945;48.516;-2.768;2023-08-06T09:00:32;19.60;61.70
72814;DHT22;60945;48.516;-2.768;2023-08-06T09:02:59;19.30;62.20
72814;DHT22;60945;48.516;-2.768;2023-08-06T09:05:30;19.60;62.20
72814;DHT22;60945;48.516;-2.768;2023-08-06T09:08:03;20.30;60.50
72814;DHT22;60945;48.516;-2.768;2023-08-06T09:10:29;21.50;57.50
72814;DHT22;60945;48.516;-2.768;2023-08-06T09:12:56;21.70;54.90
72814;DHT22;60945;48.516;-2.768;2023-08-06T09:15:26;21.30;55.60
72814;DHT22;60945;48.516;-2.768;2023-08-06T09:17:55;21.00;56.80
72814;DHT22;60945;48.516;-2.768;2023-08-06T09:20:21;20.90;57.00
72814;DHT22;60945;48.516;-2.768;2023-08-06T09:22:47;21.50;55.90
72814;DHT22;60945;48.516;-2.768;2023-08-06T09:25:23;22.00;55.20
72814;DHT22;60945;48.516;-2.768;2023-08-06T09:27:53;22.40;54.60
72814;DHT22;60945;48.516;-2.768;2023-08-06T09:30:33;23.20;51.20
72814;DHT22;60945;48.516;-2.768;2023-08-06T09:32:59;23.00;50.50
72814;DHT22;60945;48.516;-2.768;2023-08-06T09:35:28;23.00;50.80
72814;DHT22;60945;48.516;-2.768;2023-08-06T09:37:54;22.40;51.20
72814;DHT22;60945;48.516;-2.768;2023-08-06T09:40:32;22.10;52.10
72814;DHT22;60945;48.516;-2.768;2023-08-06T09:42:58;21.90;52.60
72814;DHT22;60945;48.516;-2.768;2023-08-06T09:45:33;22.30;51.70
72814;DHT22;60945;48.516;-2.768;2023-08-06T09:48:00;22.30;51.60
72814;DHT22;60945;48.516;-2.768;2023-08-06T09:50:33;22.10;53.10
72814;DHT22;60945;48.516;-2.768;2023-08-06T09:53:00;22.60;52.10
72814;DHT22;60945;48.516;-2.768;2023-08-06T09:55:26;22.70;51.40
72814;DHT22;60945;48.516;-2.768;2023-08-06T09:57:52;23.20;49.10
72814;DHT22;60945;48.516;-2.768;2023-08-06T10:00:19;24.00;48.00
72814;DHT22;60945;48.516;-2.768;2023-08-06T10:02:45;24.40;47.10
72814;DHT22;60945;48.516;-2.768;2023-08-06T10:05:12;25.80;44.20
72814;DHT22;60945;48.516;-2.768;2023-08-06T10:07:38;25.80;43.80
72814;DHT22;60945;48.516;-2.768;2023-08-06T10:10:05;25.70;43.80
72814;DHT22;60945;48.516;-2.768;2023-08-06T10:12:37;24.60;46.70
72814;DHT22;60945;48.516;-2.768;2023-08-06T10:15:08;23.80;48.10
72814;DHT22;60945;48.516;-2.768;2023-08-06T10:17:36;22.90;49.50
72814;DHT22;60945;48.516;-2.768;2023-08-06T10:20:04;22.60;50.70
72814;DHT22;60945;48.516;-2.768;2023-08-06T10:22:33;23.70;47.00
72814;DHT22;60945;48.516;-2.768;2023-08-06T10:24:59;24.10;46.60
72814;DHT22;60945;48.516;-2.768;2023-08-06T10:27:35;29.70;37.90
72814;DHT22;60945;48.516;-2.768;2023-08-06T10:30:23;26.00;42.30
72814;DHT22;60945;48.516;-2.768;2023-08-06T10:32:51;23.60;48.00
72814;DHT22;60945;48.516;-2.768;2023-08-06T10:35:37;23.00;50.00
72814;DHT22;60945;48.516;-2.768;2023-08-06T10:38:04;26.30;42.20
72814;DHT22;60945;48.516;-2.768;2023-08-06T10:40:32;24.50;45.60
72814;DHT22;60945;48.516;-2.768;2023-08-06T10:43:01;24.20;46.90
72814;DHT22;60945;48.516;-2.768;2023-08-06T10:45:28;28.10;41.30
72814;DHT22;60945;48.516;-2.768;2023-08-06T10:47:54;32.90;33.20
72814;DHT22;60945;48.516;-2.768;2023-08-06T10:50:24;33.40;31.80
72814;DHT22;60945;48.516;-2.768;2023-08-06T10:52:49;33.60;31.50
72814;DHT22;60945;48.516;-2.768;2023-08-06T10:55:28;33.80;30.80
72814;DHT22;60945;48.516;-2.768;2023-08-06T10:57:55;35.50;29.30
72814;DHT22;60945;48.516;-2.768;2023-08-06T11:00:22;34.80;29.30
72814;DHT22;60945;48.516;-2.768;2023-08-06T11:02:50;37.10;27.10
72814;DHT22;60945;48.516;-2.768;2023-08-06T11:05:16;37.40;26.40
72814;DHT22;60945;48.516;-2.768;2023-08-06T11:07:42;33.70;29.20
72814;DHT22;60945;48.516;-2.768;2023-08-06T11:10:10;29.90;34.60
72814;DHT22;60945;48.516;-2.768;2023-08-06T11:12:37;27.30;38.20
72814;DHT22;60945;48.516;-2.768;2023-08-06T11:15:03;28.60;38.00
72814;DHT22;60945;48.516;-2.768;2023-08-06T11:17:29;35.00;29.20
72814;DHT22;60945;48.516;-2.768;2023-08-06T11:19:56;38.80;26.20
72814;DHT22;60945;48.516;-2.768;2023-08-06T11:22:24;41.10;24.00
72814;DHT22;60945;48.516;-2.768;2023-08-06T11:24:49;38.70;25.10
72814;DHT22;60945;48.516;-2.768;2023-08-06T11:27:16;31.00;32.80
72814;DHT22;60945;48.516;-2.768;2023-08-06T11:29:43;29.40;35.40
72814;DHT22;60945;48.516;-2.768;2023-08-06T11:32:09;36.00;28.10
72814;DHT22;60945;48.516;-2.768;2023-08-06T11:34:36;38.80;24.40
72814;DHT22;60945;48.516;-2.768;2023-08-06T11:37:03;32.40;30.20
72814;DHT22;60945;48.516;-2.768;2023-08-06T11:39:35;28.90;35.70
72814;DHT22;60945;48.516;-2.768;2023-08-06T11:42:02;27.30;38.90
72814;DHT22;60945;48.516;-2.768;2023-08-06T11:44:34;29.40;36.00
72814;DHT22;60945;48.516;-2.768;2023-08-06T11:47:01;36.00;27.70
72814;DHT22;60945;48.516;-2.768;2023-08-06T11:52:22;35.90;25.70
72814;DHT22;60945;48.516;-2.768;2023-08-06T11:57:30;26.80;37.80
72814;DHT22;60945;48.516;-2.768;2023-08-06T12:00:04;28.30;39.00
72814;DHT22;60945;48.516;-2.768;2023-08-06T12:02:34;34.40;27.70
72814;DHT22;60945;48.516;-2.768;2023-08-06T12:05:04;31.40;31.90
72814;DHT22;60945;48.516;-2.768;2023-08-06T12:07:38;28.80;35.50
72814;DHT22;60945;48.516;-2.768;2023-08-06T12:10:04;26.80;39.20
72814;DHT22;60945;48.516;-2.768;2023-08-06T12:12:30;28.80;37.10
72814;DHT22;60945;48.516;-2.768;2023-08-06T12:14:56;36.00;28.10
72814;DHT22;60945;48.516;-2.768;2023-08-06T12:17:25;41.10;22.70
72814;DHT22;60945;48.516;-2.768;2023-08-06T12:19:51;36.00;26.00
72814;DHT22;60945;48.516;-2.768;2023-08-06T12:22:17;31.10;31.40
72814;DHT22;60945;48.516;-2.768;2023-08-06T12:24:45;28.40;35.70
72814;DHT22;60945;48.516;-2.768;2023-08-06T12:27:11;31.60;33.30
72814;DHT22;60945;48.516;-2.768;2023-08-06T12:29:41;33.30;28.90
72814;DHT22;60945;48.516;-2.768;2023-08-06T12:32:11;33.60;30.30
72814;DHT22;60945;48.516;-2.768;2023-08-06T12:34:40;39.20;24.80
72814;DHT22;60945;48.516;-2.768;2023-08-06T12:37:07;42.30;22.30
72814;DHT22;60945;48.516;-2.768;2023-08-06T12:39:33;41.60;22.10
72814;DHT22;60945;48.516;-2.768;2023-08-06T12:42:03;37.20;24.40
72814;DHT22;60945;48.516;-2.768;2023-08-06T12:44:29;31.80;30.10
72814;DHT22;60945;48.516;-2.768;2023-08-06T12:46:55;28.90;35.20
72814;DHT22;60945;48.516;-2.768;2023-08-06T12:49:21;28.50;35.10
72814;DHT22;60945;48.516;-2.768;2023-08-06T12:51:48;28.40;34.70
72814;DHT22;60945;48.516;-2.768;2023-08-06T12:54:14;33.60;29.80
72814;DHT22;60945;48.516;-2.768;2023-08-06T12:56:39;41.10;22.60
72814;DHT22;60945;48.516;-2.768;2023-08-06T12:59:05;37.10;25.40
72814;DHT22;60945;48.516;-2.768;2023-08-06T13:01:30;34.30;27.60
72814;DHT22;60945;48.516;-2.768;2023-08-06T13:03:57;40.90;23.80
72814;DHT22;60945;48.516;-2.768;2023-08-06T13:06:23;45.30;19.70
72814;DHT22;60945;48.516;-2.768;2023-08-06T13:08:48;46.80;18.60
72814;DHT22;60945;48.516;-2.768;2023-08-06T13:11:14;42.40;20.20
72814;DHT22;60945;48.516;-2.768;2023-08-06T13:13:40;36.30;24.50
72814;DHT22;60945;48.516;-2.768;2023-08-06T13:16:05;33.60;29.20
72814;DHT22;60945;48.516;-2.768;2023-08-06T13:18:31;40.30;21.70
72814;DHT22;60945;48.516;-2.768;2023-08-06T13:20:56;44.40;19.90
72814;DHT22;60945;48.516;-2.768;2023-08-06T13:23:22;47.00;18.50
72814;DHT22;60945;48.516;-2.768;2023-08-06T13:25:48;48.10;18.00
72814;DHT22;60945;48.516;-2.768;2023-08-06T13:28:13;49.90;17.30
72814;DHT22;60945;48.516;-2.768;2023-08-06T13:30:41;49.30;16.80
72814;DHT22;60945;48.516;-2.768;2023-08-06T13:33:11;47.10;18.10
72814;DHT22;60945;48.516;-2.768;2023-08-06T13:35:37;39.70;21.90
72814;DHT22;60945;48.516;-2.768;2023-08-06T13:38:03;35.00;26.70
72814;DHT22;60945;48.516;-2.768;2023-08-06T13:40:29;37.80;24.60
72814;DHT22;60945;48.516;-2.768;2023-08-06T13:42:55;43.30;20.20
72814;DHT22;60945;48.516;-2.768;2023-08-06T13:45:21;43.30;20.10
72814;DHT22;60945;48.516;-2.768;2023-08-06T13:47:47;37.10;23.40
72814;DHT22;60945;48.516;-2.768;2023-08-06T13:50:13;37.60;25.10
72814;DHT22;60945;48.516;-2.768;2023-08-06T13:52:39;43.30;20.60
72814;DHT22;60945;48.516;-2.768;2023-08-06T13:55:05;46.30;18.60
72814;DHT22;60945;48.516;-2.768;2023-08-06T13:57:31;47.50;17.90
72814;DHT22;60945;48.516;-2.768;2023-08-06T13:59:59;48.10;18.00
72814;DHT22;60945;48.516;-2.768;2023-08-06T14:02:25;44.80;19.70
72814;DHT22;60945;48.516;-2.768;2023-08-06T14:04:52;40.30;22.00
72814;DHT22;60945;48.516;-2.768;2023-08-06T14:07:18;39.80;23.00
72814;DHT22;60945;48.516;-2.768;2023-08-06T14:09:44;42.60;20.60
72814;DHT22;60945;48.516;-2.768;2023-08-06T14:12:10;43.90;20.40
72814;DHT22;60945;48.516;-2.768;2023-08-06T14:14:35;46.90;18.40
72814;DHT22;60945;48.516;-2.768;2023-08-06T14:17:02;45.80;18.30
72814;DHT22;60945;48.516;-2.768;2023-08-06T14:19:27;40.90;20.70
72814;DHT22;60945;48.516;-2.768;2023-08-06T14:21:54;35.00;25.80
72814;DHT22;60945;48.516;-2.768;2023-08-06T14:24:20;39.10;23.70
72814;DHT22;60945;48.516;-2.768;2023-08-06T14:26:46;41.10;21.80
72814;DHT22;60945;48.516;-2.768;2023-08-06T14:29:12;38.50;23.00
72814;DHT22;60945;48.516;-2.768;2023-08-06T14:31:39;32.50;28.40
72814;DHT22;60945;48.516;-2.768;2023-08-06T14:34:05;28.70;32.70
72814;DHT22;60945;48.516;-2.768;2023-08-06T14:36:30;32.40;30.10
72814;DHT22;60945;48.516;-2.768;2023-08-06T14:38:56;36.90;25.90
72814;DHT22;60945;48.516;-2.768;2023-08-06T14:41:22;33.70;27.90
72814;DHT22;60945;48.516;-2.768;2023-08-06T14:43:47;29.30;32.60
72814;DHT22;60945;48.516;-2.768;2023-08-06T14:46:13;31.80;31.90
72814;DHT22;60945;48.516;-2.768;2023-08-06T14:48:38;36.30;25.40
72814;DHT22;60945;48.516;-2.768;2023-08-06T14:51:07;34.40;26.80
72814;DHT22;60945;48.516;-2.768;2023-08-06T14:53:32;38.60;23.00
72814;DHT22;60945;48.516;-2.768;2023-08-06T14:55:58;35.50;27.00
72814;DHT22;60945;48.516;-2.768;2023-08-06T14:58:24;40.60;23.10
72814;DHT22;60945;48.516;-2.768;2023-08-06T15:00:49;44.40;19.80
72814;DHT22;60945;48.516;-2.768;2023-08-06T15:03:15;40.00;22.80
72814;DHT22;60945;48.516;-2.768;2023-08-06T15:05:43;41.50;21.50
72814;DHT22;60945;48.516;-2.768;2023-08-06T15:08:10;42.40;21.20
72814;DHT22;60945;48.516;-2.768;2023-08-06T15:10:35;42.30;21.40
72814;DHT22;60945;48.516;-2.768;2023-08-06T15:13:01;41.70;21.10
72814;DHT22;60945;48.516;-2.768;2023-08-06T15:15:28;42.40;20.50
72814;DHT22;60945;48.516;-2.768;2023-08-06T15:17:54;42.30;20.10